Flight Track Log - Related Links

Times and Time Zones

All times are in EDT time to prevent confusion due to time zone crossing. See the N172RA flight status page for this flight to view local times or setup timezone preferences in your user account.

Time Position Orientation Groundspeed Altitude Reporting Facility
EDT Latitude Longitude Course Direction KTS MPH feet Rate Location/Type
Mon 11:38:15 PM 31.0200 -81.4236 27° Northeast 101 116 2,000  Level Jacksonville Center
Mon 11:38:55 PM 31.0014 -81.4261 187° South 96 110 2,000 416 Level Jacksonville Center
Mon 11:39:56 PM 30.9786 -81.4339 196° South 89 102 2,700 595 Climbing Jacksonville Center
Mon 11:40:56 PM 30.9556 -81.4367 186° South 80 92 3,200 545 Climbing Jacksonville Center
Mon 11:41:57 PM 30.9306 -81.4394 185° South 86 99 3,800 590 Climbing Jacksonville Center
Mon 11:42:58 PM 30.9056 -81.4422 185° South 94 108 4,400 545 Climbing Jacksonville Center
Mon 11:43:58 PM 30.8783 -81.4450 185° South 94 108 4,900 545 Climbing Jacksonville Center
Mon 11:44:59 PM 30.8514 -81.4481 186° South 96 110 5,500 496 Climbing Jacksonville Center
Mon 11:45:59 PM 30.8264 -81.4508 185° South 96 110 5,900 446 Climbing Jacksonville Center
Mon 11:47:00 PM 30.7992 -81.4536 185° South 97 112 6,400 492 Climbing Jacksonville Center
Mon 11:48:01 PM 30.7700 -81.4589 189° South 97 112 6,900 496 Climbing Jacksonville Center
Mon 11:49:01 PM 30.7428 -81.4617 185° South 95 109 7,400 446 Climbing Jacksonville Center
Mon 11:50:02 PM 30.7178 -81.4644 185° South 90 104 7,800 298 Climbing Jacksonville Center
Mon 11:51:02 PM 30.6908 -81.4672 185° South 103 119 8,000 99 Climbing Jacksonville Center
Mon 11:52:03 PM 30.6617 -81.4700 185° South 110 127 8,000  Level Jacksonville Center
Mon 11:53:04 PM 30.6283 -81.4756 188° South 114 131 8,000  Level Jacksonville Center
Mon 11:54:04 PM 30.5947 -81.4808 188° South 112 129 8,000 -50 Level Jacksonville Center
Mon 11:55:05 PM 30.5678 -81.4836 185° South 107 123 7,900 -50 Descending Jacksonville Center
Mon 11:56:05 PM 30.5386 -81.4889 189° South 105 121 7,900  Level Jacksonville Center
Mon 11:57:06 PM 30.5053 -81.4917 184° South 107 123 7,900  Level Jacksonville Center
Mon 11:58:07 PM 30.4781 -81.4944 185° South 101 116 7,900  Level Jacksonville Center
Mon 11:59:07 PM 30.4489 -81.4975 185° South 106 122 7,900 50 Level Jacksonville Center
Tue 12:00:08 AM 30.4197 -81.5003 185° South 107 123 8,000 49 Climbing Jacksonville Center
Tue 12:01:09 AM 30.3883 -81.5056 188° South 106 122 8,000  Level Jacksonville Center
Tue 12:02:09 AM 30.3592 -81.5083 185° South 106 122 8,000  Level Jacksonville Center
Tue 12:03:10 AM 30.3300 -81.5111 185° South 108 124 8,000  Level Jacksonville Center
Tue 12:04:10 AM 30.2986 -81.4972 159° South 108 124 8,000 -50 Level Jacksonville Center
Tue 12:05:11 AM 30.2733 -81.4903 167° South 107 123 7,900  Descending Jacksonville Center
Tue 12:06:12 AM 30.2419 -81.4786 162° South 105 121 8,000 50 Climbing Jacksonville Center
Tue 12:07:12 AM 30.2167 -81.4647 155° Southeast 106 122 8,000 -50 Level Jacksonville Center
Tue 12:08:13 AM 30.1875 -81.4603 172° South 109 125 7,900 -49 Descending Jacksonville Center
Tue 12:09:14 AM 30.1603 -81.4464 156° South 105 121 7,900  Level Jacksonville Center
Tue 12:10:14 AM 30.1350 -81.4322 154° Southeast 115 132 7,900  Level Jacksonville Center
Tue 12:11:15 AM 30.1056 -81.4208 161° South 100 115 7,900  Level Jacksonville Center
Tue 12:12:16 AM 30.0783 -81.4117 164° South 104 120 7,900  Level Jacksonville Center
Tue 12:13:16 AM 30.0511 -81.4022 163° South 107 123 7,900 57 Level Jacksonville Center
Tue 12:14:02 AM 30.0281 -81.3931 161° South 105 121 8,000 73 Climbing Jacksonville Center
Tue 12:14:38 AM 30.0111 -81.3839 155° Southeast 106 122 8,000 62 Level Jacksonville Center
Tue 12:15:39 AM 29.9861 -81.3747 162° South 104 120 8,100 50 Climbing Jacksonville Center
Tue 12:16:39 AM 29.9567 -81.3656 165° South 107 123 8,100  Level Jacksonville Center
Tue 12:17:40 AM 29.9294 -81.3539 160° South 113 130 8,100 49 Level Jacksonville Center
Tue 12:18:41 AM 29.8981 -81.3425 163° South 116 133 8,200  Climbing Jacksonville Center
Tue 12:19:41 AM 29.8644 -81.3333 167° South 124 143 8,100 -149 Descending Jacksonville Center
Tue 12:20:42 AM 29.8331 -81.3172 156° South 130 150 7,900 -50 Descending Jacksonville Center
Tue 12:21:42 AM 29.7975 -81.3081 167° South 121 139 8,000 52 Climbing Jacksonville Center
Tue 12:22:37 AM 29.7700 -81.2992 164° South 114 131 8,000 -98 Level Jacksonville Center
Tue 12:23:44 AM 29.7364 -81.2828 157° South 120 138 7,800 -298 Descending Jacksonville Center
Tue 12:24:38 AM 29.7008 -81.2692 162° South 136 157 7,400 -470 Descending Jacksonville Center
Tue 12:25:39 AM 29.6653 -81.2553 161° South 139 160 6,900 -496 Descending Jacksonville Center
Tue 12:26:39 AM 29.6294 -81.2417 162° South 138 159 6,400 -446 Descending Jacksonville Center
Tue 12:27:40 AM 29.5919 -81.2328 168° South 134 154 6,000 -393 Descending Jacksonville Center
Tue 12:28:41 AM 29.5581 -81.2142 154° Southeast 128 147 5,600 -446 Descending Jacksonville Center
Tue 12:29:41 AM 29.5289 -81.2003 157° South 126 145 5,100 -496 Descending Jacksonville Center
Tue 12:30:42 AM 29.4911 -81.1867 163° South 128 147 4,600 -397 Descending Jacksonville Center
Tue 12:31:42 AM 29.4597 -81.1778 166° South 119 137 4,300 -347 Descending Jacksonville Center
Tue 12:32:43 AM 29.4281 -81.1639 159° South 119 137 3,900 -393 Descending Jacksonville Center
Tue 12:33:44 AM 29.3967 -81.1525 162° South 119 137 3,500 -397 Descending Jacksonville Center
Tue 12:34:44 AM 29.3653 -81.1411 162° South 113 130 3,100 -347 Descending Jacksonville Center
Tue 12:35:45 AM 29.3378 -81.1297 160° South 114 131 2,800 -248 Descending Jacksonville Center
Tue 12:36:45 AM 29.3064 -81.1161 159° South 112 129 2,600 -248 Descending Jacksonville Center
Tue 12:37:46 AM 29.2769 -81.1022 158° South 110 127 2,300 -246 Descending Jacksonville Center
Tue 12:38:47 AM 29.2497 -81.0886 156° South 109 125 2,100 -99 Descending Jacksonville Center
Tue 12:39:47 AM 29.2203 -81.0747 158° South 105 121 2,100 -50 Level Jacksonville Center
Tue 12:40:48 AM 29.1950 -81.0633 159° South 98 113 2,000  Descending Jacksonville Center
Tue 12:41:48 AM 29.1697 -81.0472 151° Southeast 99 114 2,100 100 Climbing Jacksonville Center

Login

Don't have an account? Register now (free) for customized features, flight alerts, and more!